createdAt,value
2022-08-26T00:01:14.611Z,20.94
2022-08-26T00:03:45.210Z,21.00
2022-08-26T00:06:16.294Z,21.05
2022-08-26T00:08:51.565Z,21.11
2022-08-26T00:11:26.577Z,21.16
2022-08-26T00:13:58.592Z,21.18
2022-08-26T00:16:30.868Z,21.24
2022-08-26T00:19:01.936Z,21.26
2022-08-26T00:21:32.130Z,21.26
2022-08-26T00:24:02.267Z,21.27
2022-08-26T00:26:32.303Z,21.30
2022-08-26T00:29:02.768Z,21.32
2022-08-26T00:31:33.306Z,21.40
2022-08-26T00:34:03.737Z,21.46
2022-08-26T00:36:34.643Z,21.51
2022-08-26T00:39:05.046Z,21.59
2022-08-26T00:41:39.343Z,21.63
2022-08-26T00:44:13.076Z,21.66
2022-08-26T00:46:56.333Z,21.73
2022-08-26T00:49:52.758Z,21.80
2022-08-26T00:52:25.269Z,21.85
2022-08-26T00:55:09.151Z,21.85
2022-08-26T00:57:39.642Z,21.87
2022-08-26T01:00:17.461Z,21.92
2022-08-26T01:02:50.181Z,21.94
2022-08-26T01:05:21.994Z,21.98
2022-08-26T01:07:52.538Z,22.05
2022-08-26T01:10:26.602Z,22.15
2022-08-26T01:13:12.917Z,22.23
2022-08-26T01:15:50.982Z,22.34
2022-08-26T01:18:20.914Z,22.41
2022-08-26T01:21:03.141Z,22.50
2022-08-26T01:23:46.600Z,22.57
2022-08-26T01:26:26.580Z,22.65
2022-08-26T01:29:00.171Z,22.76
2022-08-26T01:31:39.064Z,22.89
2022-08-26T01:34:15.543Z,23.03
2022-08-26T01:36:51.370Z,23.17
2022-08-26T01:39:22.740Z,23.32
2022-08-26T01:41:55.737Z,23.44
2022-08-26T01:44:30.802Z,23.53
2022-08-26T01:47:03.348Z,23.59
2022-08-26T01:49:38.822Z,23.69
2022-08-26T01:52:11.868Z,23.75
2022-08-26T01:54:43.049Z,23.91
2022-08-26T01:57:18.718Z,24.04
2022-08-26T01:59:51.499Z,24.15
2022-08-26T02:02:21.779Z,24.28
2022-08-26T02:04:56.401Z,24.38
2022-08-26T02:07:28.263Z,24.44
2022-08-26T02:09:58.591Z,24.50
2022-08-26T02:12:33.577Z,24.58
2022-08-26T02:15:08.342Z,24.66
2022-08-26T02:17:48.875Z,24.71
2022-08-26T02:20:23.402Z,24.74
2022-08-26T02:22:53.777Z,24.78
2022-08-26T02:25:49.470Z,24.86
2022-08-26T02:28:20.305Z,24.93
2022-08-26T02:30:50.910Z,25.05
2022-08-26T02:33:21.195Z,25.21
2022-08-26T02:35:51.233Z,25.32
2022-08-26T02:38:24.824Z,25.48
2022-08-26T02:40:55.759Z,25.58
2022-08-26T02:43:31.732Z,25.67
2022-08-26T02:46:03.802Z,25.83
2022-08-26T02:48:34.888Z,25.91
2022-08-26T02:51:06.803Z,25.94
2022-08-26T02:53:37.119Z,26.00
2022-08-26T02:56:11.326Z,26.03
2022-08-26T02:58:41.631Z,26.02
2022-08-26T03:01:32.006Z,26.00
2022-08-26T03:04:05.788Z,25.98
2022-08-26T03:06:36.222Z,25.94
2022-08-26T03:09:08.078Z,25.98
2022-08-26T03:11:48.265Z,25.93
2022-08-26T03:15:24.161Z,25.94
2022-08-26T03:18:03.872Z,25.96
2022-08-26T03:21:04.408Z,25.99
2022-08-26T03:23:51.997Z,25.94
2022-08-26T03:26:22.560Z,25.92
2022-08-26T03:29:26.597Z,25.95
2022-08-26T03:32:05.780Z,25.81
2022-08-26T03:34:43.139Z,25.92
2022-08-26T03:37:13.408Z,25.89
2022-08-26T03:39:44.483Z,25.87
2022-08-26T03:42:24.816Z,25.82
2022-08-26T03:44:58.695Z,25.81
2022-08-26T03:47:52.803Z,25.77
2022-08-26T03:50:35.829Z,25.73
2022-08-26T03:53:21.240Z,25.69
2022-08-26T03:56:14.673Z,25.69
2022-08-26T03:58:57.965Z,25.65
2022-08-26T04:01:29.462Z,25.62
2022-08-26T04:04:01.935Z,25.61
2022-08-26T04:06:35.974Z,25.60
2022-08-26T04:09:15.406Z,25.51
2022-08-26T04:11:50.299Z,25.49
2022-08-26T04:14:25.294Z,25.49
2022-08-26T04:16:57.682Z,25.48
2022-08-26T04:19:29.321Z,25.46
2022-08-26T04:22:00.201Z,25.43
2022-08-26T04:24:32.316Z,25.48
2022-08-26T04:27:04.774Z,25.38
2022-08-26T04:29:40.379Z,25.50
2022-08-26T04:32:11.549Z,25.49
2022-08-26T04:34:43.444Z,25.47
2022-08-26T04:37:15.238Z,25.47
2022-08-26T04:39:44.948Z,25.35
2022-08-26T04:42:18.858Z,25.45
2022-08-26T04:44:53.875Z,25.38
2022-08-26T04:47:23.616Z,25.41
2022-08-26T04:49:57.947Z,25.38
2022-08-26T04:52:28.423Z,25.31
2022-08-26T04:54:58.972Z,25.36
2022-08-26T04:57:32.143Z,25.40
2022-08-26T05:00:03.330Z,25.44
2022-08-26T05:02:34.164Z,25.42
2022-08-26T05:05:06.783Z,25.44
2022-08-26T05:07:37.562Z,25.52
2022-08-26T05:10:09.871Z,25.55
2022-08-26T05:12:40.799Z,25.55
2022-08-26T05:15:15.942Z,25.60
2022-08-26T05:17:47.098Z,25.55
2022-08-26T05:20:22.618Z,25.67
2022-08-26T05:22:57.355Z,25.74
2022-08-26T05:25:27.519Z,25.83
2022-08-26T05:27:58.238Z,25.87
2022-08-26T05:30:28.619Z,25.89
2022-08-26T05:32:58.788Z,25.89
2022-08-26T05:35:35.448Z,25.92
2022-08-26T05:38:12.498Z,25.91
2022-08-26T05:40:52.843Z,25.83
2022-08-26T05:43:24.009Z,25.82
2022-08-26T05:45:56.954Z,26.01
2022-08-26T05:48:27.443Z,26.20
2022-08-26T05:50:57.485Z,26.29
2022-08-26T05:53:27.779Z,26.35
2022-08-26T05:55:59.881Z,26.43
2022-08-26T05:58:30.841Z,26.55
2022-08-26T06:01:05.013Z,26.55
2022-08-26T06:03:38.650Z,26.58
2022-08-26T06:06:12.617Z,26.54
2022-08-26T06:08:43.186Z,26.58
2022-08-26T06:11:18.520Z,26.61
2022-08-26T06:13:49.432Z,26.57
2022-08-26T06:16:22.668Z,26.56
2022-08-26T06:18:56.269Z,26.51
2022-08-26T06:21:31.250Z,26.44
2022-08-26T06:24:27.194Z,26.33
2022-08-26T06:27:02.611Z,26.45
2022-08-26T06:29:37.735Z,26.44
2022-08-26T06:32:08.790Z,26.45
2022-08-26T06:34:39.626Z,26.40
2022-08-26T06:37:10.124Z,26.41
2022-08-26T06:39:41.161Z,26.43
2022-08-26T06:42:12.160Z,26.41
2022-08-26T06:44:44.877Z,26.38
2022-08-26T06:47:15.227Z,26.41
2022-08-26T06:49:45.331Z,26.45
2022-08-26T06:52:16.509Z,26.50
2022-08-26T06:54:50.510Z,26.59
2022-08-26T06:57:21.357Z,26.69
2022-08-26T06:59:51.565Z,26.72
2022-08-26T07:02:21.770Z,26.74
2022-08-26T07:04:52.126Z,26.89
2022-08-26T07:07:26.772Z,26.82
2022-08-26T07:09:57.666Z,26.94
2022-08-26T07:12:27.807Z,26.95
2022-08-26T07:14:59.357Z,26.91
2022-08-26T07:17:29.922Z,26.92
2022-08-26T07:20:00.027Z,26.93
2022-08-26T07:22:30.268Z,27.01
2022-08-26T07:25:00.005Z,26.95
2022-08-26T07:27:30.307Z,27.08
2022-08-26T07:30:00.408Z,27.10
2022-08-26T07:32:33.478Z,27.13
2022-08-26T07:35:03.622Z,27.14
2022-08-26T07:37:35.518Z,27.16
2022-08-26T07:40:11.005Z,27.13
2022-08-26T07:42:41.745Z,27.15
2022-08-26T07:45:11.980Z,27.07
2022-08-26T07:47:42.009Z,27.02
2022-08-26T07:50:13.260Z,26.94
2022-08-26T07:52:44.003Z,26.89
2022-08-26T07:55:15.388Z,26.93
2022-08-26T07:57:46.584Z,26.89
2022-08-26T08:00:18.695Z,26.97
2022-08-26T08:02:50.494Z,27.01
2022-08-26T08:05:23.531Z,26.95
2022-08-26T08:08:27.390Z,26.98
2022-08-26T08:10:58.115Z,26.96
2022-08-26T08:13:30.894Z,26.90
2022-08-26T08:16:02.031Z,26.85
2022-08-26T08:18:32.396Z,26.87
2022-08-26T08:21:21.053Z,26.99
2022-08-26T08:23:55.709Z,26.93
2022-08-26T08:26:27.414Z,26.92
2022-08-26T08:28:59.435Z,26.92
2022-08-26T08:34:26.080Z,27.02
2022-08-26T08:36:56.301Z,26.96
2022-08-26T08:39:27.746Z,26.95
2022-08-26T08:42:12.850Z,26.91
2022-08-26T08:44:52.129Z,26.85
2022-08-26T08:47:39.420Z,26.73
2022-08-26T08:50:48.646Z,26.60
2022-08-26T08:53:32.462Z,26.54
2022-08-26T08:56:24.847Z,26.44
2022-08-26T08:59:16.274Z,26.36
2022-08-26T09:01:52.437Z,26.31
2022-08-26T09:04:57.947Z,26.34
2022-08-26T09:07:53.982Z,26.30
2022-08-26T09:10:48.956Z,26.29
2022-08-26T09:13:26.278Z,26.27
2022-08-26T09:16:20.690Z,26.23
2022-08-26T09:19:06.399Z,26.22
2022-08-26T09:21:37.323Z,26.21
2022-08-26T09:24:11.275Z,26.10
2022-08-26T09:26:49.773Z,26.01
2022-08-26T09:29:31.094Z,26.07
2022-08-26T09:32:26.766Z,26.03
2022-08-26T09:35:02.158Z,25.97
2022-08-26T09:37:53.168Z,25.96
2022-08-26T09:40:35.347Z,25.86
2022-08-26T09:43:14.900Z,25.86
2022-08-26T09:45:50.128Z,25.83
2022-08-26T09:48:36.222Z,25.80
2022-08-26T09:51:30.105Z,25.73
2022-08-26T09:54:08.089Z,25.69
2022-08-26T09:56:40.998Z,25.62
2022-08-26T09:59:14.039Z,25.58
2022-08-26T10:01:49.487Z,25.56
2022-08-26T10:04:27.522Z,25.53
2022-08-26T10:07:06.950Z,25.50
2022-08-26T10:09:44.324Z,25.45
2022-08-26T10:12:22.451Z,25.38
2022-08-26T10:14:58.084Z,25.30
2022-08-26T10:17:54.487Z,25.26
2022-08-26T10:20:39.759Z,25.20
2022-08-26T10:23:18.662Z,25.14
2022-08-26T10:25:56.959Z,25.08
2022-08-26T10:28:58.593Z,25.02
2022-08-26T10:31:28.847Z,24.93
2022-08-26T10:34:00.648Z,24.88
2022-08-26T10:39:57.027Z,24.72
2022-08-26T10:42:39.362Z,24.62
2022-08-26T10:45:19.445Z,24.53
2022-08-26T10:48:02.529Z,24.43
2022-08-26T10:50:39.884Z,24.30
2022-08-26T10:53:25.251Z,24.20
2022-08-26T10:56:18.766Z,24.08
2022-08-26T10:58:49.233Z,23.98
2022-08-26T11:01:53.584Z,23.88
2022-08-26T11:04:27.088Z,23.76
2022-08-26T11:07:31.726Z,23.63
2022-08-26T11:10:15.204Z,23.47
2022-08-26T11:12:49.188Z,23.29
2022-08-26T11:15:24.941Z,23.13
2022-08-26T11:17:57.518Z,23.02
2022-08-26T11:20:36.589Z,22.92
2022-08-26T11:23:25.029Z,22.82
2022-08-26T11:26:01.470Z,22.73
2022-08-26T11:28:37.085Z,22.58
2022-08-26T11:31:12.051Z,22.45
2022-08-26T11:33:59.717Z,22.37
2022-08-26T11:36:56.392Z,22.28
2022-08-26T11:39:36.916Z,22.19
2022-08-26T11:42:32.220Z,22.12
2022-08-26T11:45:05.764Z,22.00
2022-08-26T11:47:35.988Z,21.94
2022-08-26T11:50:15.283Z,21.87
2022-08-26T11:53:03.102Z,21.80
2022-08-26T11:55:36.077Z,21.72
2022-08-26T11:58:08.828Z,21.63
2022-08-26T12:01:09.813Z,21.58
2022-08-26T12:03:47.971Z,21.52
2022-08-26T12:06:31.542Z,21.49
2022-08-26T12:09:07.026Z,21.42
2022-08-26T12:11:40.755Z,21.40
2022-08-26T12:14:18.395Z,21.33
2022-08-26T12:16:49.163Z,21.29
2022-08-26T12:19:32.652Z,21.23
2022-08-26T12:22:09.539Z,21.16
2022-08-26T12:24:48.975Z,21.11
2022-08-26T12:27:38.603Z,21.09
2022-08-26T12:30:14.022Z,21.05
2022-08-26T12:32:58.085Z,20.98
2022-08-26T12:35:30.275Z,20.93
2022-08-26T12:38:03.414Z,20.89
2022-08-26T12:40:41.295Z,20.83
2022-08-26T12:43:14.983Z,20.77
2022-08-26T12:46:01.861Z,20.74
2022-08-26T12:48:38.683Z,20.71
2022-08-26T12:51:18.180Z,20.68
2022-08-26T12:53:51.440Z,20.66
2022-08-26T12:56:48.391Z,20.62
2022-08-26T12:59:27.489Z,20.57
2022-08-26T13:01:58.762Z,20.51
2022-08-26T13:04:44.911Z,20.48
2022-08-26T13:07:25.768Z,20.42
2022-08-26T13:09:58.945Z,20.38
2022-08-26T13:12:38.799Z,20.35
2022-08-26T13:15:09.753Z,20.32
2022-08-26T13:17:40.566Z,20.32
2022-08-26T13:20:11.309Z,20.30
2022-08-26T13:25:19.767Z,20.33
2022-08-26T13:27:50.405Z,20.31
2022-08-26T13:30:21.155Z,20.30
2022-08-26T13:33:03.060Z,20.28
2022-08-26T13:35:34.128Z,20.25
2022-08-26T13:38:04.637Z,20.19
2022-08-26T13:40:37.376Z,20.17
2022-08-26T13:43:07.676Z,20.10
2022-08-26T13:45:38.125Z,20.03
2022-08-26T13:48:09.787Z,19.98
2022-08-26T13:50:40.072Z,19.94
2022-08-26T13:53:10.403Z,19.89
2022-08-26T13:55:41.026Z,19.87
2022-08-26T13:58:12.417Z,19.83
2022-08-26T14:00:43.646Z,19.79
2022-08-26T14:03:14.037Z,19.75
2022-08-26T14:05:44.478Z,19.70
2022-08-26T14:08:14.717Z,19.70
2022-08-26T14:10:45.127Z,19.65
2022-08-26T14:13:15.955Z,19.60
2022-08-26T14:15:46.252Z,19.53
2022-08-26T14:18:20.566Z,19.45
2022-08-26T14:20:54.850Z,19.38
2022-08-26T14:23:25.295Z,19.36
2022-08-26T14:25:56.418Z,19.37
2022-08-26T14:28:27.292Z,19.30
2022-08-26T14:31:00.814Z,19.36
2022-08-26T14:33:34.712Z,19.35
2022-08-26T14:36:23.730Z,19.33
2022-08-26T14:38:55.857Z,19.30
2022-08-26T14:41:26.687Z,19.18
2022-08-26T14:44:04.006Z,19.26
2022-08-26T14:46:42.410Z,19.24
2022-08-26T14:49:16.433Z,19.23
2022-08-26T14:51:48.761Z,19.25
2022-08-26T14:54:20.680Z,19.27
2022-08-26T14:56:53.375Z,19.27
2022-08-26T14:59:30.057Z,19.28
2022-08-26T15:02:03.026Z,19.28
2022-08-26T15:04:33.879Z,19.28
2022-08-26T15:07:05.217Z,19.29
2022-08-26T15:09:38.812Z,19.30
2022-08-26T15:12:09.241Z,19.28
2022-08-26T15:14:39.644Z,19.30
2022-08-26T15:17:11.120Z,19.30
2022-08-26T15:19:41.797Z,19.28
2022-08-26T15:22:11.872Z,19.26
2022-08-26T15:24:42.546Z,19.21
2022-08-26T15:27:13.955Z,19.17
2022-08-26T15:29:47.921Z,19.10
2022-08-26T15:32:18.445Z,19.08
2022-08-26T15:34:54.462Z,19.05
2022-08-26T15:37:26.491Z,19.05
2022-08-26T15:39:58.530Z,19.04
2022-08-26T15:42:29.622Z,19.06
2022-08-26T15:45:00.277Z,19.08
2022-08-26T15:47:31.344Z,19.07
2022-08-26T15:50:06.108Z,19.06
2022-08-26T15:52:36.725Z,19.04
2022-08-26T15:55:07.459Z,19.02
2022-08-26T15:57:38.312Z,18.99
2022-08-26T16:00:10.667Z,18.92
2022-08-26T16:02:44.017Z,18.91
2022-08-26T16:05:14.618Z,18.87
2022-08-26T16:07:44.574Z,18.83
2022-08-26T16:10:14.702Z,18.80
2022-08-26T16:12:45.185Z,18.78
2022-08-26T16:15:18.649Z,18.76
2022-08-26T16:17:48.691Z,18.72
2022-08-26T16:20:21.795Z,18.70
2022-08-26T16:22:54.402Z,18.67
2022-08-26T16:25:25.059Z,18.62
2022-08-26T16:27:56.060Z,18.51
2022-08-26T16:30:26.723Z,18.50
2022-08-26T16:32:59.413Z,18.46
2022-08-26T16:35:29.916Z,18.45
2022-08-26T16:38:02.155Z,18.45
2022-08-26T16:40:32.700Z,18.42
2022-08-26T16:43:02.881Z,18.44
2022-08-26T16:45:33.180Z,18.47
2022-08-26T16:48:03.845Z,18.46
2022-08-26T16:50:34.652Z,18.47
2022-08-26T16:53:04.077Z,18.51
2022-08-26T16:55:35.932Z,18.48
2022-08-26T16:58:06.150Z,18.48
2022-08-26T17:00:36.227Z,18.50
2022-08-26T17:03:06.482Z,18.51
2022-08-26T17:05:38.137Z,18.53
2022-08-26T17:08:08.733Z,18.55
2022-08-26T17:10:39.159Z,18.58
2022-08-26T17:13:09.336Z,18.59
2022-08-26T17:15:39.585Z,18.62
2022-08-26T17:18:10.430Z,18.59
2022-08-26T17:20:40.579Z,18.58
2022-08-26T17:23:10.791Z,18.53
2022-08-26T17:25:40.306Z,18.48
2022-08-26T17:28:13.196Z,18.44
2022-08-26T17:30:44.153Z,18.37
2022-08-26T17:33:14.238Z,18.33
2022-08-26T17:35:47.459Z,18.28
2022-08-26T17:38:17.632Z,18.21
2022-08-26T17:40:47.012Z,18.13
2022-08-26T17:43:17.036Z,18.01
2022-08-26T17:45:47.455Z,18.00
2022-08-26T17:48:18.454Z,17.98
2022-08-26T17:50:49.368Z,17.96
2022-08-26T17:53:20.085Z,17.96
2022-08-26T17:55:51.165Z,17.96
2022-08-26T17:58:23.619Z,17.93
2022-08-26T18:00:55.985Z,17.90
2022-08-26T18:03:26.239Z,17.92
2022-08-26T18:05:56.360Z,17.88
2022-08-26T18:08:26.838Z,17.92
2022-08-26T18:10:56.894Z,17.90
2022-08-26T18:13:27.042Z,17.87
2022-08-26T18:15:57.072Z,17.81
2022-08-26T18:18:27.985Z,17.77
2022-08-26T18:21:07.237Z,17.76
2022-08-26T18:23:37.164Z,17.78
2022-08-26T18:26:07.784Z,17.78
2022-08-26T18:28:41.159Z,17.77
2022-08-26T18:31:14.339Z,17.69
2022-08-26T18:33:45.003Z,17.71
2022-08-26T18:36:25.018Z,17.70
2022-08-26T18:38:55.496Z,17.68
2022-08-26T18:41:30.015Z,17.69
2022-08-26T18:44:00.772Z,17.66
2022-08-26T18:46:31.107Z,17.68
2022-08-26T18:49:01.122Z,17.66
2022-08-26T18:51:34.242Z,17.64
2022-08-26T18:54:07.878Z,17.62
2022-08-26T18:56:40.514Z,17.61
2022-08-26T18:59:11.498Z,17.56
2022-08-26T19:01:43.657Z,17.64
2022-08-26T19:04:15.586Z,17.65
2022-08-26T19:06:48.819Z,17.69
2022-08-26T19:09:20.966Z,17.69
2022-08-26T19:11:51.059Z,17.69
2022-08-26T19:14:21.233Z,17.71
2022-08-26T19:16:53.731Z,17.72
2022-08-26T19:19:28.108Z,17.73
2022-08-26T19:21:58.328Z,17.71
2022-08-26T19:24:29.477Z,17.72
2022-08-26T19:27:03.821Z,17.70
2022-08-26T19:29:36.845Z,17.70
2022-08-26T19:32:08.394Z,17.70
2022-08-26T19:34:39.569Z,17.71
2022-08-26T19:37:09.648Z,17.70
2022-08-26T19:39:40.069Z,17.70
2022-08-26T19:42:09.989Z,17.68
2022-08-26T19:44:58.098Z,17.69
2022-08-26T19:47:28.217Z,17.69
2022-08-26T19:49:59.112Z,17.69
2022-08-26T19:52:29.957Z,17.65
2022-08-26T19:55:02.242Z,17.66
2022-08-26T19:57:32.591Z,17.64
2022-08-26T20:00:02.771Z,17.64
2022-08-26T20:02:35.362Z,17.62
2022-08-26T20:05:07.799Z,17.63
2022-08-26T20:07:38.194Z,17.62
2022-08-26T20:10:11.204Z,17.69
2022-08-26T20:12:43.010Z,17.75
2022-08-26T20:15:14.444Z,17.84
2022-08-26T20:17:47.666Z,17.89
2022-08-26T20:20:37.765Z,17.97
2022-08-26T20:23:07.918Z,18.02
2022-08-26T20:25:37.948Z,18.07
2022-08-26T20:28:08.028Z,18.13
2022-08-26T20:30:38.069Z,18.19
2022-08-26T20:33:08.150Z,18.22
2022-08-26T20:35:38.299Z,18.25
2022-08-26T20:38:08.598Z,18.27
2022-08-26T20:40:38.818Z,18.26
2022-08-26T20:43:08.885Z,18.28
2022-08-26T20:45:38.924Z,18.32
2022-08-26T20:48:09.363Z,18.35
2022-08-26T20:50:40.335Z,18.37
2022-08-26T20:53:10.419Z,18.38
2022-08-26T20:55:40.882Z,18.35
2022-08-26T20:58:10.328Z,18.36
2022-08-26T21:00:41.002Z,18.39
2022-08-26T21:03:11.362Z,18.35
2022-08-26T21:05:41.359Z,18.37
2022-08-26T21:08:11.625Z,18.29
2022-08-26T21:10:42.684Z,18.36
2022-08-26T21:13:13.443Z,18.35
2022-08-26T21:15:43.602Z,18.31
2022-08-26T21:18:13.885Z,18.22
2022-08-26T21:20:43.874Z,18.23
2022-08-26T21:23:16.037Z,18.29
2022-08-26T21:25:47.085Z,18.26
2022-08-26T21:28:18.543Z,18.27
2022-08-26T21:30:48.718Z,18.28
2022-08-26T21:33:18.767Z,18.23
2022-08-26T21:35:57.939Z,18.28
2022-08-26T21:38:28.558Z,18.29
2022-08-26T21:41:16.629Z,18.29
2022-08-26T21:43:47.532Z,18.24
2022-08-26T21:46:23.249Z,18.24
2022-08-26T21:48:59.950Z,18.20
2022-08-26T21:51:33.488Z,18.19
2022-08-26T21:54:09.926Z,18.20
2022-08-26T21:56:47.983Z,18.18
2022-08-26T21:59:20.435Z,18.20
2022-08-26T22:01:52.426Z,18.19
2022-08-26T22:04:23.220Z,18.17
2022-08-26T22:06:56.722Z,18.16
2022-08-26T22:09:29.193Z,18.21
2022-08-26T22:12:00.224Z,18.23
2022-08-26T22:14:31.072Z,18.29
2022-08-26T22:17:03.789Z,18.32
2022-08-26T22:19:34.164Z,18.38
2022-08-26T22:22:17.228Z,18.34
2022-08-26T22:24:47.227Z,18.40
2022-08-26T22:27:17.249Z,18.43
2022-08-26T22:29:49.271Z,18.51
2022-08-26T22:32:19.841Z,18.55
2022-08-26T22:34:49.917Z,18.62
2022-08-26T22:37:19.928Z,18.64
2022-08-26T22:39:50.008Z,18.62
2022-08-26T22:42:20.100Z,18.58
2022-08-26T22:44:50.568Z,18.55
2022-08-26T22:47:20.635Z,18.52
2022-08-26T22:49:50.789Z,18.47
2022-08-26T22:52:20.791Z,18.48
2022-08-26T22:54:50.903Z,18.47
2022-08-26T22:57:22.368Z,18.49
2022-08-26T22:59:52.440Z,18.49
2022-08-26T23:02:23.492Z,18.47
2022-08-26T23:04:53.699Z,18.56
2022-08-26T23:07:24.705Z,18.62
2022-08-26T23:09:54.725Z,18.66
2022-08-26T23:12:24.201Z,18.73
2022-08-26T23:14:54.263Z,18.80
2022-08-26T23:17:24.724Z,18.87
2022-08-26T23:19:56.669Z,18.95
2022-08-26T23:22:31.149Z,19.02
2022-08-26T23:25:07.804Z,19.09
2022-08-26T23:27:41.275Z,19.17
2022-08-26T23:30:18.197Z,19.24
2022-08-26T23:32:49.645Z,19.34
2022-08-26T23:35:24.451Z,19.40
2022-08-26T23:37:55.859Z,19.45
2022-08-26T23:40:36.184Z,19.58
2022-08-26T23:43:09.536Z,19.68
2022-08-26T23:45:39.269Z,19.74
2022-08-26T23:48:09.486Z,19.84
2022-08-26T23:50:57.545Z,19.95
2022-08-26T23:53:27.629Z,20.03
2022-08-26T23:55:57.863Z,20.14
2022-08-26T23:58:27.922Z,20.18
